createdAt,value
2023-11-10T00:00:38.146Z,22.80
2023-11-10T00:03:07.570Z,22.80
2023-11-10T00:05:36.685Z,22.90
2023-11-10T00:08:06.996Z,22.90
2023-11-10T00:10:36.000Z,22.80
2023-11-10T00:13:05.078Z,22.80
2023-11-10T00:15:35.750Z,22.80
2023-11-10T00:18:05.131Z,22.80
2023-11-10T00:20:37.493Z,22.80
2023-11-10T00:23:08.726Z,22.80
2023-11-10T00:25:37.428Z,22.80
2023-11-10T00:28:06.536Z,22.80
2023-11-10T00:30:38.232Z,22.80
2023-11-10T00:33:07.220Z,22.80
2023-11-10T00:35:35.684Z,22.70
2023-11-10T00:38:04.899Z,22.70
2023-11-10T00:40:33.457Z,22.80
2023-11-10T00:43:01.838Z,22.70
2023-11-10T00:45:30.451Z,22.70
2023-11-10T00:48:01.661Z,22.70
2023-11-10T00:50:30.333Z,22.70
2023-11-10T00:52:58.733Z,22.70
2023-11-10T00:55:27.282Z,22.70
2023-11-10T00:57:56.035Z,22.80
2023-11-10T01:00:24.433Z,22.80
2023-11-10T01:02:55.833Z,22.80
2023-11-10T01:05:26.185Z,22.80
2023-11-10T01:07:54.561Z,22.80
2023-11-10T01:10:23.368Z,22.80
2023-11-10T01:12:51.894Z,22.80
2023-11-10T01:15:21.722Z,22.80
2023-11-10T01:17:50.323Z,22.70
2023-11-10T01:20:19.671Z,22.70
2023-11-10T01:22:49.566Z,22.70
2023-11-10T01:25:18.034Z,22.70
2023-11-10T01:27:46.422Z,22.70
2023-11-10T01:30:15.673Z,22.70
2023-11-10T01:32:44.891Z,22.70
2023-11-10T01:35:13.547Z,22.70
2023-11-10T01:37:43.597Z,22.70
2023-11-10T01:40:15.389Z,22.70
2023-11-10T01:42:43.841Z,22.70
2023-11-10T01:45:13.418Z,22.60
2023-11-10T01:47:42.448Z,22.60
2023-11-10T01:50:12.997Z,22.60
2023-11-10T01:52:43.114Z,22.60
2023-11-10T01:55:18.075Z,22.70
2023-11-10T01:57:48.730Z,22.70
2023-11-10T02:00:20.909Z,22.70
2023-11-10T02:02:49.583Z,22.70
2023-11-10T02:05:19.010Z,22.70
2023-11-10T02:07:48.361Z,22.70
2023-11-10T02:10:17.294Z,22.70
2023-11-10T02:12:53.877Z,22.70
2023-11-10T02:15:22.688Z,22.70
2023-11-10T02:17:51.394Z,22.70
2023-11-10T02:20:20.275Z,22.70
2023-11-10T02:22:50.300Z,22.70
2023-11-10T02:25:20.933Z,22.60
2023-11-10T02:27:51.754Z,22.60
2023-11-10T02:30:20.790Z,22.60
2023-11-10T02:32:49.422Z,22.60
2023-11-10T02:35:17.989Z,22.60
2023-11-10T02:37:46.370Z,22.60
2023-11-10T02:40:15.079Z,22.60
2023-11-10T02:42:45.045Z,22.60
2023-11-10T02:45:16.260Z,22.60
2023-11-10T02:47:45.649Z,22.60
2023-11-10T02:50:14.425Z,22.60
2023-11-10T02:52:42.936Z,22.60
2023-11-10T02:55:11.283Z,22.60
2023-11-10T02:57:39.710Z,22.60
2023-11-10T03:00:11.879Z,22.60
2023-11-10T03:02:40.310Z,22.60
2023-11-10T03:05:09.660Z,22.60
2023-11-10T03:07:37.738Z,22.60
2023-11-10T03:10:09.772Z,22.60
2023-11-10T03:12:38.176Z,22.60
2023-11-10T03:15:09.463Z,22.60
2023-11-10T03:17:38.163Z,22.60
2023-11-10T03:20:10.604Z,22.60
2023-11-10T03:22:39.432Z,22.60
2023-11-10T03:25:09.142Z,22.60
2023-11-10T03:27:38.059Z,22.60
2023-11-10T03:30:10.186Z,22.60
2023-11-10T03:32:38.677Z,22.60
2023-11-10T03:35:08.801Z,22.60
2023-11-10T03:37:38.707Z,22.50
2023-11-10T03:40:11.418Z,22.50
2023-11-10T03:42:39.927Z,22.50
2023-11-10T03:45:12.065Z,22.50
2023-11-10T03:47:41.504Z,22.50
2023-11-10T03:50:11.078Z,22.50
2023-11-10T03:52:39.540Z,22.50
2023-11-10T03:55:08.542Z,22.50
2023-11-10T03:57:36.964Z,22.50
2023-11-10T04:00:06.794Z,22.50
2023-11-10T04:02:36.767Z,22.60
2023-11-10T04:05:05.751Z,22.60
2023-11-10T04:07:34.286Z,22.60
2023-11-10T04:10:02.954Z,22.60
2023-11-10T04:12:31.397Z,22.60
2023-11-10T04:14:59.823Z,22.60
2023-11-10T04:17:28.394Z,22.60
2023-11-10T04:19:58.263Z,22.60
2023-11-10T04:22:26.665Z,22.60
2023-11-10T04:24:56.036Z,22.50
2023-11-10T04:27:25.132Z,22.50
2023-11-10T04:29:53.594Z,22.50
2023-11-10T04:32:23.153Z,22.50
2023-11-10T04:34:52.747Z,22.50
2023-11-10T04:37:22.775Z,22.50
2023-11-10T04:39:53.477Z,22.50
2023-11-10T04:42:21.991Z,22.50
2023-11-10T04:44:50.401Z,22.50
2023-11-10T04:47:18.764Z,22.50
2023-11-10T04:49:47.107Z,22.50
2023-11-10T04:52:16.560Z,22.50
2023-11-10T04:54:48.028Z,22.50
2023-11-10T04:57:17.651Z,22.50
2023-11-10T04:59:48.627Z,22.50
2023-11-10T05:02:17.023Z,22.50
2023-11-10T05:04:45.642Z,22.50
2023-11-10T05:07:14.571Z,22.50
2023-11-10T05:09:43.094Z,22.50
2023-11-10T05:12:13.080Z,22.50
2023-11-10T05:14:44.081Z,22.50
2023-11-10T05:17:12.554Z,22.50
2023-11-10T05:19:40.943Z,22.50
2023-11-10T05:22:12.057Z,22.50
2023-11-10T05:24:43.484Z,22.50
2023-11-10T05:27:13.450Z,22.50
2023-11-10T05:29:41.925Z,22.50
2023-11-10T05:32:11.230Z,22.50
2023-11-10T05:34:39.596Z,22.50
2023-11-10T05:37:11.338Z,22.50
2023-11-10T05:39:39.846Z,22.50
2023-11-10T05:42:08.535Z,22.40
2023-11-10T05:44:38.403Z,22.40
2023-11-10T05:47:07.324Z,22.40
2023-11-10T05:49:36.096Z,22.40
2023-11-10T05:52:05.949Z,22.40
2023-11-10T05:54:34.459Z,22.40
2023-11-10T05:57:03.143Z,22.40
2023-11-10T05:59:31.876Z,22.40
2023-11-10T06:02:01.980Z,22.40
2023-11-10T06:04:35.103Z,22.40
2023-11-10T06:07:05.253Z,22.40
2023-11-10T06:09:34.886Z,22.40
2023-11-10T06:12:03.858Z,22.40
2023-11-10T06:14:32.761Z,22.50
2023-11-10T06:17:02.556Z,22.60
2023-11-10T06:19:30.963Z,22.80
2023-11-10T06:21:59.769Z,22.90
2023-11-10T06:24:29.475Z,23.10
2023-11-10T06:26:58.250Z,23.20
2023-11-10T06:29:26.817Z,23.30
2023-11-10T06:31:55.532Z,23.30
2023-11-10T06:34:25.890Z,23.30
2023-11-10T06:36:54.511Z,23.30
2023-11-10T06:39:23.058Z,23.20
2023-11-10T06:41:51.406Z,23.20
2023-11-10T06:44:20.790Z,23.10
2023-11-10T06:46:49.498Z,23.00
2023-11-10T06:49:18.097Z,22.90
2023-11-10T06:51:48.494Z,22.80
2023-11-10T06:54:17.066Z,22.80
2023-11-10T06:56:45.596Z,22.80
2023-11-10T06:59:14.377Z,22.80
2023-11-10T07:01:43.162Z,22.80
2023-11-10T07:04:12.207Z,22.90
2023-11-10T07:06:41.481Z,22.90
2023-11-10T07:09:13.800Z,22.80
2023-11-10T07:11:42.620Z,22.80
2023-11-10T07:14:11.118Z,22.80
2023-11-10T07:16:40.017Z,22.80
2023-11-10T07:19:09.131Z,22.80
2023-11-10T07:21:38.471Z,22.80
2023-11-10T07:24:08.222Z,22.80
2023-11-10T07:26:37.941Z,22.80
2023-11-10T07:29:06.614Z,22.80
2023-11-10T07:31:35.033Z,22.80
2023-11-10T07:34:05.576Z,22.80
2023-11-10T07:36:34.255Z,22.80
2023-11-10T07:39:02.825Z,22.80
2023-11-10T07:41:31.245Z,22.70
2023-11-10T07:44:00.927Z,22.70
2023-11-10T07:46:29.518Z,22.70
2023-11-10T07:48:58.440Z,22.70
2023-11-10T07:51:27.330Z,22.70
2023-11-10T07:53:55.866Z,22.80
2023-11-10T07:56:24.351Z,22.80
2023-11-10T07:58:52.902Z,22.80
2023-11-10T08:01:22.695Z,22.80
2023-11-10T08:03:51.192Z,22.80
2023-11-10T08:06:19.704Z,22.80
2023-11-10T08:08:48.169Z,22.80
2023-11-10T08:11:18.249Z,22.80
2023-11-10T08:13:46.752Z,22.80
2023-11-10T08:16:15.815Z,22.80
2023-11-10T08:18:45.709Z,22.70
2023-11-10T08:21:18.906Z,22.80
2023-11-10T08:23:47.649Z,22.70
2023-11-10T08:26:16.142Z,22.80
2023-11-10T08:28:44.643Z,22.70
2023-11-10T08:31:13.063Z,22.70
2023-11-10T08:33:41.758Z,22.70
2023-11-10T08:36:11.504Z,22.70
2023-11-10T08:38:39.902Z,22.70
2023-11-10T08:41:08.245Z,22.70
2023-11-10T08:43:36.736Z,22.70
2023-11-10T08:46:05.603Z,22.70
2023-11-10T08:48:34.097Z,22.70
2023-11-10T08:51:04.016Z,22.70
2023-11-10T08:53:35.427Z,22.70
2023-11-10T08:56:06.301Z,22.80
2023-11-10T08:58:34.857Z,22.70
2023-11-10T09:01:03.428Z,22.70
2023-11-10T09:03:31.956Z,22.70
2023-11-10T09:06:01.001Z,22.70
2023-11-10T09:08:29.433Z,22.70
2023-11-10T09:10:59.635Z,22.70
2023-11-10T09:13:27.966Z,22.70
2023-11-10T09:16:02.080Z,22.60
2023-11-10T09:18:31.320Z,22.60
2023-11-10T09:20:59.880Z,22.60
2023-11-10T09:23:29.987Z,22.60
2023-11-10T09:25:59.840Z,22.60
2023-11-10T09:28:28.645Z,22.60
2023-11-10T09:30:57.133Z,22.60
2023-11-10T09:33:25.665Z,22.60
2023-11-10T09:35:54.019Z,22.60
2023-11-10T09:38:22.521Z,22.60
2023-11-10T09:40:52.677Z,22.60
2023-11-10T09:43:25.695Z,22.60
2023-11-10T09:45:57.015Z,22.60
2023-11-10T09:48:25.938Z,22.60
2023-11-10T09:50:57.727Z,22.60
2023-11-10T09:53:28.140Z,22.70
2023-11-10T09:55:57.157Z,22.60
2023-11-10T09:58:28.260Z,22.60
2023-11-10T10:00:59.441Z,22.60
2023-11-10T10:03:30.286Z,22.60
2023-11-10T10:06:01.503Z,22.60
2023-11-10T10:08:29.852Z,22.60
2023-11-10T10:10:58.198Z,22.60
2023-11-10T10:13:29.434Z,22.50
2023-11-10T10:16:09.020Z,22.40
2023-11-10T10:18:39.495Z,22.50
2023-11-10T10:21:08.086Z,22.40
2023-11-10T10:23:37.328Z,22.40
2023-11-10T10:26:09.026Z,22.40
2023-11-10T10:28:40.411Z,22.40
2023-11-10T10:31:09.181Z,22.50
2023-11-10T10:33:38.133Z,22.50
2023-11-10T10:36:07.558Z,22.50
2023-11-10T10:38:40.038Z,22.50
2023-11-10T10:41:12.235Z,22.50
2023-11-10T10:43:55.111Z,22.60
2023-11-10T10:46:34.733Z,22.60
2023-11-10T10:49:05.648Z,22.60
2023-11-10T10:51:37.979Z,22.60
2023-11-10T10:54:08.976Z,22.60
2023-11-10T10:56:44.962Z,22.60
2023-11-10T10:59:17.897Z,22.60
2023-11-10T11:01:50.451Z,22.50
2023-11-10T11:04:31.095Z,22.50
2023-11-10T11:07:31.880Z,22.50
2023-11-10T11:10:42.459Z,22.50
2023-11-10T11:13:45.965Z,22.50
2023-11-10T11:16:35.429Z,22.50
2023-11-10T11:19:25.053Z,22.50
2023-11-10T11:21:54.925Z,22.50
2023-11-10T11:24:24.445Z,22.50
2023-11-10T11:26:59.898Z,22.50
2023-11-10T11:29:36.060Z,22.50
2023-11-10T11:32:09.727Z,22.50
2023-11-10T11:34:38.593Z,22.50
2023-11-10T11:37:08.431Z,22.50
2023-11-10T11:39:37.264Z,22.50
2023-11-10T11:42:07.313Z,22.50
2023-11-10T11:44:37.089Z,22.50
2023-11-10T11:47:12.255Z,22.50
2023-11-10T11:49:41.213Z,22.50
2023-11-10T11:52:12.622Z,22.50
2023-11-10T11:54:41.390Z,22.50
2023-11-10T11:57:09.840Z,22.50
2023-11-10T11:59:39.210Z,22.50
2023-11-10T12:02:10.893Z,22.50
2023-11-10T12:04:39.528Z,22.50
2023-11-10T12:07:08.046Z,22.50
2023-11-10T12:09:36.475Z,22.40
2023-11-10T12:12:05.840Z,22.50
2023-11-10T12:14:35.018Z,22.50
2023-11-10T12:17:04.161Z,22.50
2023-11-10T12:19:34.306Z,22.50
2023-11-10T12:22:02.870Z,22.50
2023-11-10T12:24:32.914Z,22.50
2023-11-10T12:27:01.850Z,22.50
2023-11-10T12:29:31.849Z,22.50
2023-11-10T12:32:01.050Z,22.50
2023-11-10T12:34:30.135Z,22.50
2023-11-10T12:37:05.657Z,22.50
2023-11-10T12:39:36.744Z,22.50
2023-11-10T12:42:07.085Z,22.50
2023-11-10T12:44:35.796Z,22.50
2023-11-10T12:47:08.085Z,22.50
2023-11-10T12:49:36.774Z,22.50
2023-11-10T12:52:11.451Z,22.50
2023-11-10T12:54:43.488Z,22.50
2023-11-10T12:57:13.081Z,22.50
2023-11-10T12:59:43.107Z,22.50
2023-11-10T13:02:13.168Z,22.50
2023-11-10T13:04:42.234Z,22.50
2023-11-10T13:07:13.058Z,22.50
2023-11-10T13:09:41.598Z,22.50
2023-11-10T13:12:12.645Z,22.50
2023-11-10T13:14:41.018Z,22.50
2023-11-10T13:17:09.557Z,22.40
2023-11-10T13:19:38.427Z,22.40
2023-11-10T13:22:07.647Z,22.40
2023-11-10T13:24:37.509Z,22.40
2023-11-10T13:27:06.955Z,22.40
2023-11-10T13:29:35.509Z,22.40
2023-11-10T13:32:04.497Z,22.40
2023-11-10T13:34:33.969Z,22.40
2023-11-10T13:37:06.773Z,22.50
2023-11-10T13:39:36.758Z,22.50
2023-11-10T13:42:07.559Z,22.50
2023-11-10T13:44:36.077Z,22.40
2023-11-10T13:47:04.845Z,22.40
2023-11-10T13:49:33.260Z,22.50
2023-11-10T13:52:02.099Z,22.50
2023-11-10T13:54:30.824Z,22.50
2023-11-10T13:57:00.641Z,22.50
2023-11-10T13:59:29.062Z,22.40
2023-11-10T14:01:57.666Z,22.50
2023-11-10T14:04:26.300Z,22.50
2023-11-10T14:06:55.050Z,22.50
2023-11-10T14:09:23.525Z,22.50
2023-11-10T14:11:51.985Z,22.50
2023-11-10T14:14:21.646Z,22.50
2023-11-10T14:16:50.179Z,22.50
2023-11-10T14:19:19.901Z,22.60
2023-11-10T14:21:48.275Z,22.50
2023-11-10T14:24:17.170Z,22.50
2023-11-10T14:26:46.180Z,22.50
2023-11-10T14:29:14.705Z,22.50
2023-11-10T14:31:44.777Z,22.50
2023-11-10T14:34:14.633Z,22.50
2023-11-10T14:36:43.427Z,22.50
2023-11-10T14:39:17.240Z,22.40
2023-11-10T14:41:52.269Z,22.50
2023-11-10T14:44:20.778Z,22.40
2023-11-10T14:46:53.462Z,22.40
2023-11-10T14:49:22.027Z,22.40
2023-11-10T14:51:57.722Z,22.40
2023-11-10T14:54:26.451Z,22.40
2023-11-10T14:56:54.832Z,22.40
2023-11-10T14:59:23.256Z,22.40
2023-11-10T15:01:53.471Z,22.50
2023-11-10T15:04:22.647Z,22.50
2023-11-10T15:06:53.736Z,22.60
2023-11-10T15:09:22.503Z,22.80
2023-11-10T15:11:50.969Z,22.90
2023-11-10T15:14:19.524Z,23.10
2023-11-10T15:16:48.350Z,23.10
2023-11-10T15:19:18.892Z,23.30
2023-11-10T15:21:47.644Z,23.40
2023-11-10T15:24:16.744Z,23.40
2023-11-10T15:26:45.357Z,23.50
2023-11-10T15:29:13.678Z,23.40
2023-11-10T15:31:43.463Z,23.40
2023-11-10T15:34:14.174Z,23.40
2023-11-10T15:36:51.742Z,23.30
2023-11-10T15:39:21.865Z,23.30
2023-11-10T15:41:50.497Z,23.30
2023-11-10T15:44:19.087Z,23.20
2023-11-10T15:46:47.772Z,23.20
2023-11-10T15:49:16.350Z,23.20
2023-11-10T15:51:56.222Z,23.10
2023-11-10T15:54:29.020Z,23.10
2023-11-10T15:57:00.318Z,23.10
2023-11-10T15:59:29.237Z,23.10
2023-11-10T16:01:58.649Z,23.10
2023-11-10T16:04:27.801Z,23.00
2023-11-10T16:06:57.930Z,23.00
2023-11-10T16:09:26.785Z,23.00
2023-11-10T16:11:55.809Z,23.00
2023-11-10T16:14:27.577Z,23.00
2023-11-10T16:16:56.839Z,23.00
2023-11-10T16:19:25.674Z,23.00
2023-11-10T16:21:54.208Z,23.00
2023-11-10T16:24:26.828Z,23.00
2023-11-10T16:26:55.563Z,23.00
2023-11-10T16:29:24.931Z,23.00
2023-11-10T16:31:54.914Z,23.00
2023-11-10T16:34:23.464Z,23.00
2023-11-10T16:36:54.793Z,23.10
2023-11-10T16:39:25.416Z,23.10
2023-11-10T16:41:53.900Z,23.10
2023-11-10T16:44:22.729Z,23.20
2023-11-10T16:46:53.831Z,23.20
2023-11-10T16:49:24.076Z,23.30
2023-11-10T16:51:54.091Z,23.30
2023-11-10T16:54:24.004Z,23.40
2023-11-10T16:56:52.837Z,23.40
2023-11-10T16:59:21.258Z,23.50
2023-11-10T17:01:49.856Z,23.60
2023-11-10T17:04:19.183Z,23.70
2023-11-10T17:06:48.539Z,23.80
2023-11-10T17:09:17.098Z,23.80
2023-11-10T17:11:47.341Z,23.90
2023-11-10T17:14:16.006Z,23.90
2023-11-10T17:16:44.612Z,23.90
2023-11-10T17:19:13.536Z,23.90
2023-11-10T17:21:41.949Z,24.00
2023-11-10T17:24:11.515Z,23.90
2023-11-10T17:26:39.898Z,23.90
2023-11-10T17:29:09.939Z,24.00
2023-11-10T17:31:38.826Z,24.10
2023-11-10T17:34:07.461Z,24.00
2023-11-10T17:36:35.946Z,24.00
2023-11-10T17:39:05.372Z,24.00
2023-11-10T17:41:34.038Z,23.90
2023-11-10T17:44:02.456Z,23.90
2023-11-10T17:46:32.458Z,23.80
2023-11-10T17:49:00.843Z,23.80
2023-11-10T17:51:29.279Z,23.70
2023-11-10T17:53:57.644Z,23.70
2023-11-10T17:56:26.431Z,23.80
2023-11-10T17:58:54.893Z,23.70
2023-11-10T18:01:23.348Z,23.70
2023-11-10T18:03:53.296Z,23.80
2023-11-10T18:06:21.828Z,23.90
2023-11-10T18:08:50.177Z,24.00
2023-11-10T18:11:25.361Z,24.10
2023-11-10T18:13:54.437Z,24.10
2023-11-10T18:16:23.132Z,24.00
2023-11-10T18:18:54.859Z,23.90
2023-11-10T18:21:23.534Z,23.90
2023-11-10T18:23:52.020Z,23.90
2023-11-10T18:26:21.451Z,23.90
2023-11-10T18:28:52.032Z,23.90
2023-11-10T18:31:20.682Z,23.90
2023-11-10T18:33:49.400Z,23.90
2023-11-10T18:36:19.351Z,23.90
2023-11-10T18:38:47.852Z,23.90
2023-11-10T18:41:16.307Z,23.90
2023-11-10T18:43:46.358Z,24.00
2023-11-10T18:46:15.718Z,23.90
2023-11-10T18:48:44.073Z,23.90
2023-11-10T18:51:13.632Z,23.90
2023-11-10T18:53:43.530Z,23.90
2023-11-10T18:56:12.268Z,23.90
2023-11-10T18:58:40.885Z,23.90
2023-11-10T19:01:09.501Z,24.00
2023-11-10T19:03:38.996Z,23.90
2023-11-10T19:06:08.848Z,24.00
2023-11-10T19:08:39.012Z,23.90
2023-11-10T19:11:09.280Z,23.90
2023-11-10T19:13:37.853Z,23.90
2023-11-10T19:16:07.166Z,23.90
2023-11-10T19:18:36.073Z,23.90
2023-11-10T19:21:05.129Z,23.90
2023-11-10T19:23:34.372Z,23.80
2023-11-10T19:26:03.323Z,23.90
2023-11-10T19:28:34.295Z,23.80
2023-11-10T19:31:03.965Z,23.80
2023-11-10T19:33:33.486Z,23.80
2023-11-10T19:36:02.068Z,23.70
2023-11-10T19:38:30.496Z,23.80
2023-11-10T19:40:58.939Z,23.80
2023-11-10T19:43:27.367Z,23.80
2023-11-10T19:45:57.050Z,23.80
2023-11-10T19:48:25.470Z,23.70
2023-11-10T19:50:53.923Z,23.80
2023-11-10T19:53:24.786Z,23.80
2023-11-10T19:55:53.553Z,23.80
2023-11-10T20:03:26.585Z,23.80
2023-11-10T20:05:55.366Z,23.80
2023-11-10T20:08:24.202Z,23.80
2023-11-10T20:10:52.801Z,23.70
2023-11-10T20:13:22.254Z,23.70
2023-11-10T20:15:50.702Z,23.80
2023-11-10T20:18:19.135Z,23.70
2023-11-10T20:20:49.016Z,23.70
2023-11-10T20:23:18.172Z,23.70
2023-11-10T20:25:46.752Z,23.60
2023-11-10T20:28:15.207Z,23.60
2023-11-10T20:30:43.793Z,23.60
2023-11-10T20:33:12.266Z,23.60
2023-11-10T20:35:40.831Z,23.60
2023-11-10T20:38:12.234Z,23.60
2023-11-10T20:40:40.842Z,23.60
2023-11-10T20:43:09.202Z,23.60
2023-11-10T20:45:39.142Z,23.60
2023-11-10T20:48:09.520Z,23.60
2023-11-10T20:50:39.283Z,23.60
2023-11-10T20:53:10.614Z,23.50
2023-11-10T20:55:39.966Z,23.50
2023-11-10T20:58:10.932Z,23.20
2023-11-10T21:00:39.814Z,23.20
2023-11-10T21:03:12.194Z,23.20
2023-11-10T21:05:47.558Z,23.20
2023-11-10T21:08:17.476Z,23.30
2023-11-10T21:10:46.041Z,23.20
2023-11-10T21:13:15.218Z,23.30
2023-11-10T21:15:47.108Z,23.30
2023-11-10T21:18:19.505Z,23.30
2023-11-10T21:20:48.540Z,23.20
2023-11-10T21:23:18.379Z,23.20
2023-11-10T21:25:47.363Z,23.20
2023-11-10T21:28:16.498Z,23.20
2023-11-10T21:30:50.310Z,23.20
2023-11-10T21:33:23.138Z,23.30
2023-11-10T21:35:51.856Z,23.30
2023-11-10T21:38:25.322Z,23.30
2023-11-10T21:40:54.699Z,23.30
2023-11-10T21:43:23.253Z,23.30
2023-11-10T21:45:51.768Z,23.20
2023-11-10T21:48:21.897Z,23.20
2023-11-10T21:50:50.351Z,23.20
2023-11-10T21:53:19.110Z,23.30
2023-11-10T21:55:48.977Z,23.20
2023-11-10T21:58:19.582Z,23.20
2023-11-10T22:00:48.562Z,23.20
2023-11-10T22:03:18.725Z,23.20
2023-11-10T22:05:47.710Z,23.20
2023-11-10T22:08:16.544Z,23.20
2023-11-10T22:10:45.418Z,23.20
2023-11-10T22:13:15.341Z,23.20
2023-11-10T22:15:43.850Z,23.20
2023-11-10T22:18:13.105Z,23.10
2023-11-10T22:20:42.413Z,23.20
2023-11-10T22:23:10.849Z,23.20
2023-11-10T22:25:39.534Z,23.20
2023-11-10T22:28:08.609Z,23.20
2023-11-10T22:30:38.745Z,23.20
2023-11-10T22:33:07.997Z,23.10
2023-11-10T22:35:36.427Z,23.10
2023-11-10T22:38:04.770Z,23.10
2023-11-10T22:40:33.264Z,23.10
2023-11-10T22:43:01.585Z,23.10
2023-11-10T22:45:30.910Z,23.10
2023-11-10T22:48:00.794Z,23.10
2023-11-10T22:50:31.742Z,23.10
2023-11-10T22:53:00.291Z,23.10
2023-11-10T22:55:28.796Z,23.10
2023-11-10T22:57:57.177Z,23.10
2023-11-10T23:00:32.916Z,23.10
2023-11-10T23:03:07.283Z,23.10
2023-11-10T23:05:36.578Z,23.10
2023-11-10T23:08:07.087Z,23.10
2023-11-10T23:10:35.595Z,23.10
2023-11-10T23:13:05.929Z,23.10
2023-11-10T23:15:34.574Z,23.10
2023-11-10T23:18:04.665Z,23.10
2023-11-10T23:20:34.827Z,23.10
2023-11-10T23:23:05.351Z,23.10
2023-11-10T23:25:34.656Z,23.10
2023-11-10T23:28:05.691Z,23.00
2023-11-10T23:30:35.262Z,23.00
2023-11-10T23:33:07.778Z,23.00
2023-11-10T23:35:40.197Z,23.00
2023-11-10T23:38:12.949Z,23.00
2023-11-10T23:40:41.914Z,23.00
2023-11-10T23:43:11.869Z,23.00
2023-11-10T23:45:43.125Z,23.00
2023-11-10T23:48:13.271Z,23.00
2023-11-10T23:50:42.167Z,23.00
2023-11-10T23:53:10.960Z,23.00
2023-11-10T23:55:39.754Z,23.00
2023-11-10T23:58:08.345Z,23.00
